createdAt,value
2022-09-18T00:00:57.799Z,2.10
2022-09-18T00:03:25.757Z,1.57
2022-09-18T00:05:54.917Z,2.53
2022-09-18T00:08:22.811Z,2.70
2022-09-18T00:10:50.482Z,2.50
2022-09-18T00:13:18.235Z,1.60
2022-09-18T00:15:55.745Z,2.10
2022-09-18T00:18:23.516Z,1.23
2022-09-18T00:20:51.217Z,1.90
2022-09-18T00:23:20.457Z,2.50
2022-09-18T00:25:48.180Z,2.20
2022-09-18T00:28:15.858Z,1.90
2022-09-18T00:30:43.601Z,1.63
2022-09-18T00:33:11.289Z,2.17
2022-09-18T00:35:43.035Z,2.00
2022-09-18T00:38:10.849Z,1.20
2022-09-18T00:40:40.685Z,1.90
2022-09-18T00:43:19.838Z,2.10
2022-09-18T00:45:53.108Z,1.80
2022-09-18T00:48:22.207Z,1.77
2022-09-18T00:50:50.154Z,2.17
2022-09-18T00:53:17.860Z,4.70
2022-09-18T00:55:47.057Z,2.30
2022-09-18T00:58:14.744Z,1.80
2022-09-18T01:00:42.540Z,1.40
2022-09-18T01:03:10.285Z,2.10
2022-09-18T01:05:49.511Z,1.80
2022-09-18T01:08:27.106Z,2.23
2022-09-18T01:11:09.744Z,1.60
2022-09-18T01:13:46.078Z,1.60
2022-09-18T01:16:20.418Z,1.57
2022-09-18T01:18:56.428Z,1.70
2022-09-18T01:21:31.351Z,2.47
2022-09-18T01:24:28.238Z,1.57
2022-09-18T01:26:59.947Z,2.33
2022-09-18T01:29:38.458Z,2.27
2022-09-18T01:32:11.866Z,2.40
2022-09-18T01:34:45.973Z,1.73
2022-09-18T01:37:19.126Z,2.00
2022-09-18T01:39:54.036Z,1.97
2022-09-18T01:42:24.850Z,1.77
2022-09-18T01:44:56.447Z,2.00
2022-09-18T01:47:29.013Z,2.13
2022-09-18T01:50:00.576Z,1.83
2022-09-18T01:52:31.528Z,1.93
2022-09-18T01:55:02.641Z,2.00
2022-09-18T01:57:37.406Z,2.50
2022-09-18T02:00:09.205Z,2.57
2022-09-18T02:02:42.903Z,2.17
2022-09-18T02:05:16.234Z,2.00
2022-09-18T02:07:50.085Z,3.10
2022-09-18T02:10:18.963Z,2.27
2022-09-18T02:12:48.989Z,1.80
2022-09-18T02:15:19.564Z,2.87
2022-09-18T02:17:51.942Z,3.40
2022-09-18T02:20:24.146Z,2.07
2022-09-18T02:22:55.010Z,2.33
2022-09-18T02:25:26.465Z,2.33
2022-09-18T02:27:55.834Z,2.50
2022-09-18T02:30:26.216Z,1.83
2022-09-18T02:32:55.700Z,2.00
2022-09-18T02:35:26.357Z,2.23
2022-09-18T02:38:01.202Z,2.30
2022-09-18T02:40:37.929Z,1.90
2022-09-18T02:43:21.404Z,2.37
2022-09-18T02:45:59.530Z,2.90
2022-09-18T02:48:41.875Z,1.73
2022-09-18T02:51:16.046Z,1.50
2022-09-18T02:53:48.773Z,1.43
2022-09-18T02:56:26.127Z,2.10
2022-09-18T02:58:56.819Z,2.37
2022-09-18T03:01:27.706Z,2.40
2022-09-18T03:03:55.430Z,1.80
2022-09-18T03:06:23.162Z,1.50
2022-09-18T03:08:51.000Z,2.60
2022-09-18T03:11:18.684Z,2.33
2022-09-18T03:13:46.394Z,1.50
2022-09-18T03:16:14.102Z,2.23
2022-09-18T03:18:43.342Z,2.30
2022-09-18T03:21:11.039Z,2.20
2022-09-18T03:23:41.270Z,1.63
2022-09-18T03:26:12.570Z,2.00
2022-09-18T03:28:40.242Z,1.63
2022-09-18T03:31:08.053Z,2.40
2022-09-18T03:33:35.776Z,2.03
2022-09-18T03:36:05.806Z,2.63
2022-09-18T03:38:33.691Z,2.00
2022-09-18T03:41:01.796Z,2.10
2022-09-18T03:43:29.478Z,1.80
2022-09-18T03:45:57.327Z,2.17
2022-09-18T03:48:25.079Z,2.00
2022-09-18T03:50:52.756Z,1.80
2022-09-18T03:53:21.778Z,2.03
2022-09-18T03:55:50.439Z,1.77
2022-09-18T03:58:18.130Z,1.20
2022-09-18T04:00:45.935Z,1.60
2022-09-18T04:03:13.778Z,1.40
2022-09-18T04:05:41.495Z,1.40
2022-09-18T04:08:09.197Z,1.50
2022-09-18T04:10:38.211Z,1.60
2022-09-18T04:13:05.897Z,2.47
2022-09-18T04:15:33.676Z,1.97
2022-09-18T04:18:01.335Z,1.70
2022-09-18T04:20:32.242Z,1.70
2022-09-18T04:22:59.940Z,2.40
2022-09-18T04:25:27.601Z,2.20
2022-09-18T04:27:56.602Z,4.33
2022-09-18T04:30:24.300Z,1.77
2022-09-18T04:32:52.474Z,1.87
2022-09-18T04:35:20.159Z,2.00
2022-09-18T04:37:47.831Z,2.13
2022-09-18T04:40:15.742Z,2.70
2022-09-18T04:42:43.477Z,2.13
2022-09-18T04:45:12.640Z,1.93
2022-09-18T04:47:40.910Z,2.40
2022-09-18T04:50:10.838Z,2.30
2022-09-18T04:52:38.615Z,2.17
2022-09-18T04:55:07.199Z,1.90
2022-09-18T04:57:34.869Z,2.33
2022-09-18T05:00:03.726Z,1.90
2022-09-18T05:02:32.742Z,1.87
2022-09-18T05:05:00.431Z,2.10
2022-09-18T05:07:28.548Z,2.17
2022-09-18T05:09:56.244Z,2.10
2022-09-18T05:12:24.077Z,1.70
2022-09-18T05:14:51.851Z,2.23
2022-09-18T05:17:19.582Z,2.43
2022-09-18T05:19:48.599Z,2.33
2022-09-18T05:22:16.254Z,2.07
2022-09-18T05:24:43.955Z,2.33
2022-09-18T05:27:11.657Z,2.00
2022-09-18T05:29:39.339Z,1.60
2022-09-18T05:32:07.060Z,2.10
2022-09-18T05:34:34.834Z,1.90
2022-09-18T05:37:03.972Z,1.70
2022-09-18T05:39:31.703Z,1.90
2022-09-18T05:41:59.527Z,2.57
2022-09-18T05:44:27.261Z,1.70
2022-09-18T05:46:54.975Z,1.80
2022-09-18T05:49:22.750Z,2.30
2022-09-18T05:51:50.534Z,1.93
2022-09-18T05:54:19.631Z,2.17
2022-09-18T05:56:47.614Z,2.30
2022-09-18T05:59:15.319Z,2.27
2022-09-18T06:01:46.961Z,1.50
2022-09-18T06:04:15.081Z,1.83
2022-09-18T06:06:43.038Z,1.93
2022-09-18T06:09:10.769Z,1.40
2022-09-18T06:11:39.787Z,1.60
2022-09-18T06:14:07.450Z,1.80
2022-09-18T06:16:39.883Z,1.60
2022-09-18T06:19:09.701Z,1.97
2022-09-18T06:21:37.378Z,2.00
2022-09-18T06:24:05.300Z,2.40
2022-09-18T06:26:33.065Z,1.97
2022-09-18T06:29:02.309Z,2.27
2022-09-18T06:31:30.111Z,1.90
2022-09-18T06:33:57.962Z,2.50
2022-09-18T06:36:25.748Z,2.17
2022-09-18T06:38:53.430Z,1.90
2022-09-18T06:41:21.140Z,2.17
2022-09-18T06:43:50.173Z,2.27
2022-09-18T06:46:19.541Z,1.80
2022-09-18T06:48:49.438Z,3.50
2022-09-18T06:51:17.170Z,1.90
2022-09-18T06:53:44.843Z,1.77
2022-09-18T06:56:12.541Z,1.63
2022-09-18T06:58:40.224Z,2.13
2022-09-18T07:01:07.989Z,1.50
2022-09-18T07:03:37.056Z,1.77
2022-09-18T07:06:05.167Z,1.67
2022-09-18T07:08:32.856Z,1.50
2022-09-18T07:11:02.117Z,1.40
2022-09-18T07:13:31.729Z,1.63
2022-09-18T07:15:59.561Z,1.53
2022-09-18T07:18:27.313Z,1.87
2022-09-18T07:20:56.372Z,3.07
2022-09-18T07:23:24.230Z,1.80
2022-09-18T07:25:51.977Z,1.70
2022-09-18T07:28:19.881Z,1.70
2022-09-18T07:30:47.597Z,3.00
2022-09-18T07:33:15.279Z,1.47
2022-09-18T07:35:43.026Z,2.10
2022-09-18T07:38:12.397Z,1.93
2022-09-18T07:40:42.581Z,2.63
2022-09-18T07:43:12.105Z,1.77
2022-09-18T07:45:40.028Z,1.90
2022-09-18T07:48:08.624Z,1.90
2022-09-18T07:50:36.694Z,2.27
2022-09-18T07:53:05.535Z,1.70
2022-09-18T07:55:36.719Z,1.70
2022-09-18T07:58:06.501Z,1.83
2022-09-18T08:00:36.984Z,2.30
2022-09-18T08:03:06.026Z,1.73
2022-09-18T08:05:34.019Z,1.63
2022-09-18T08:08:06.126Z,2.13
2022-09-18T08:10:36.425Z,1.57
2022-09-18T08:13:04.590Z,1.40
2022-09-18T08:15:32.845Z,1.50
2022-09-18T08:18:00.897Z,1.33
2022-09-18T08:20:28.585Z,1.37
2022-09-18T08:22:56.486Z,1.70
2022-09-18T08:25:27.307Z,1.60
2022-09-18T08:28:00.145Z,1.80
2022-09-18T08:30:28.172Z,1.87
2022-09-18T08:32:59.096Z,1.30
2022-09-18T08:35:27.738Z,1.43
2022-09-18T08:37:55.646Z,1.73
2022-09-18T08:40:39.726Z,1.47
2022-09-18T08:43:16.900Z,2.50
2022-09-18T08:45:55.914Z,2.13
2022-09-18T08:48:27.263Z,1.90
2022-09-18T08:51:00.361Z,1.90
2022-09-18T08:53:34.072Z,1.40
2022-09-18T08:56:05.079Z,1.23
2022-09-18T08:58:41.067Z,1.50
2022-09-18T09:01:10.718Z,1.37
2022-09-18T09:03:50.196Z,1.40
2022-09-18T09:06:29.600Z,1.60
2022-09-18T09:09:21.091Z,1.50
2022-09-18T09:11:57.246Z,1.70
2022-09-18T09:14:56.139Z,1.60
2022-09-18T09:17:39.143Z,2.10
2022-09-18T09:20:19.023Z,1.20
2022-09-18T09:22:52.353Z,1.63
2022-09-18T09:25:23.696Z,1.47
2022-09-18T09:27:58.023Z,1.50
2022-09-18T09:30:33.688Z,1.03
2022-09-18T09:33:08.003Z,1.37
2022-09-18T09:35:39.645Z,1.77
2022-09-18T09:38:38.923Z,1.20
2022-09-18T09:41:14.208Z,1.60
2022-09-18T09:43:48.317Z,1.00
2022-09-18T09:46:26.508Z,1.23
2022-09-18T09:49:02.512Z,0.80
2022-09-18T09:51:41.109Z,1.60
2022-09-18T09:54:11.205Z,1.20
2022-09-18T09:56:46.236Z,1.93
2022-09-18T09:59:23.319Z,1.60
2022-09-18T10:01:58.763Z,1.50
2022-09-18T10:04:35.323Z,1.70
2022-09-18T10:07:12.075Z,1.77
2022-09-18T10:09:46.402Z,1.13
2022-09-18T10:12:23.322Z,1.47
2022-09-18T10:14:53.345Z,1.40
2022-09-18T10:17:23.485Z,0.90
2022-09-18T10:19:51.197Z,0.93
2022-09-18T10:22:23.389Z,1.20
2022-09-18T10:24:57.780Z,1.30
2022-09-18T10:27:25.547Z,1.23
2022-09-18T10:29:54.265Z,1.00
2022-09-18T10:32:37.485Z,1.20
2022-09-18T10:35:43.150Z,0.87
2022-09-18T10:38:33.304Z,1.20
2022-09-18T10:41:20.247Z,0.97
2022-09-18T10:43:55.976Z,0.90
2022-09-18T10:46:25.652Z,0.70
2022-09-18T10:48:55.117Z,0.90
2022-09-18T10:51:25.660Z,1.00
2022-09-18T10:54:05.260Z,1.20
2022-09-18T10:56:33.742Z,0.90
2022-09-18T10:59:15.690Z,1.53
2022-09-18T11:01:44.964Z,0.70
2022-09-18T11:04:18.367Z,1.00
2022-09-18T11:06:47.777Z,1.10
2022-09-18T11:09:20.267Z,1.07
2022-09-18T11:11:51.197Z,1.10
2022-09-18T11:14:22.985Z,1.07
2022-09-18T11:16:53.458Z,1.37
2022-09-18T11:19:29.259Z,1.70
2022-09-18T11:22:00.322Z,1.30
2022-09-18T11:24:31.115Z,1.20
2022-09-18T11:27:00.743Z,1.77
2022-09-18T11:29:31.686Z,0.80
2022-09-18T11:32:07.339Z,0.80
2022-09-18T11:34:38.778Z,0.93
2022-09-18T11:37:08.833Z,1.20
2022-09-18T11:39:41.582Z,1.67
2022-09-18T11:42:12.699Z,1.10
2022-09-18T11:44:40.718Z,1.23
2022-09-18T11:47:28.261Z,1.10
2022-09-18T11:50:05.339Z,1.30
2022-09-18T11:52:39.205Z,1.10
2022-09-18T11:55:14.936Z,1.10
2022-09-18T11:57:48.189Z,1.10
2022-09-18T12:00:19.832Z,1.03
2022-09-18T12:02:57.950Z,0.90
2022-09-18T12:05:30.423Z,1.00
2022-09-18T12:08:04.114Z,1.70
2022-09-18T12:10:50.187Z,1.20
2022-09-18T12:13:33.585Z,1.20
2022-09-18T12:16:08.945Z,1.10
2022-09-18T12:18:46.449Z,1.00
2022-09-18T12:21:18.966Z,1.40
2022-09-18T12:23:46.686Z,1.40
2022-09-18T12:26:20.674Z,1.03
2022-09-18T12:29:04.619Z,0.90
2022-09-18T12:31:40.265Z,1.03
2022-09-18T12:34:17.619Z,1.10
2022-09-18T12:37:05.027Z,1.47
2022-09-18T12:39:51.949Z,1.63
2022-09-18T12:42:28.887Z,0.90
2022-09-18T12:45:31.151Z,0.97
2022-09-18T12:48:15.501Z,0.93
2022-09-18T12:50:57.467Z,0.93
2022-09-18T12:53:49.682Z,0.77
2022-09-18T12:56:34.222Z,0.90
2022-09-18T12:59:39.498Z,1.10
2022-09-18T13:02:21.338Z,0.80
2022-09-18T13:04:52.325Z,1.10
2022-09-18T13:07:25.934Z,0.97
2022-09-18T13:10:00.027Z,1.10
2022-09-18T13:12:33.097Z,1.40
2022-09-18T13:15:06.362Z,0.80
2022-09-18T13:17:39.377Z,0.90
2022-09-18T13:20:15.512Z,0.90
2022-09-18T13:22:45.646Z,0.90
2022-09-18T13:25:25.456Z,0.90
2022-09-18T13:27:55.229Z,0.70
2022-09-18T13:30:28.868Z,0.87
2022-09-18T13:32:57.767Z,0.83
2022-09-18T13:35:28.833Z,0.80
2022-09-18T13:38:13.259Z,1.00
2022-09-18T13:40:45.493Z,0.80
2022-09-18T13:43:36.622Z,0.77
2022-09-18T13:46:07.061Z,0.83
2022-09-18T13:48:41.863Z,0.80
2022-09-18T13:51:11.818Z,0.90
2022-09-18T13:53:42.490Z,1.07
2022-09-18T13:56:13.042Z,0.60
2022-09-18T13:58:52.822Z,0.83
2022-09-18T14:01:54.851Z,0.90
2022-09-18T14:05:08.037Z,1.10
2022-09-18T14:08:05.321Z,0.77
2022-09-18T14:10:51.273Z,0.80
2022-09-18T14:13:37.087Z,0.80
2022-09-18T14:16:10.007Z,1.20
2022-09-18T14:18:51.643Z,0.90
2022-09-18T14:21:26.552Z,0.90
2022-09-18T14:24:25.241Z,1.00
2022-09-18T14:27:01.628Z,0.70
2022-09-18T14:29:34.639Z,0.80
2022-09-18T14:32:03.813Z,0.80
2022-09-18T14:34:37.991Z,1.00
2022-09-18T14:37:25.853Z,1.00
2022-09-18T14:39:55.355Z,0.80
2022-09-18T14:42:32.573Z,1.17
2022-09-18T14:45:23.900Z,0.90
2022-09-18T14:47:51.623Z,0.73
2022-09-18T14:50:28.235Z,1.00
2022-09-18T14:52:57.147Z,1.00
2022-09-18T14:55:34.047Z,0.87
2022-09-18T14:58:06.972Z,1.00
2022-09-18T15:00:38.385Z,0.87
2022-09-18T15:03:09.554Z,1.10
2022-09-18T15:05:37.875Z,1.17
2022-09-18T15:08:14.849Z,1.10
2022-09-18T15:10:47.519Z,1.00
2022-09-18T15:13:16.834Z,1.00
2022-09-18T15:15:47.426Z,1.40
2022-09-18T15:18:20.299Z,0.87
2022-09-18T15:20:50.521Z,1.50
2022-09-18T15:23:19.828Z,1.70
2022-09-18T15:25:52.945Z,1.30
2022-09-18T15:28:22.366Z,1.70
2022-09-18T15:30:57.226Z,1.43
2022-09-18T15:33:27.281Z,1.77
2022-09-18T15:35:56.803Z,2.30
2022-09-18T15:38:27.014Z,1.40
2022-09-18T15:40:55.413Z,1.30
2022-09-18T15:43:43.324Z,1.40
2022-09-18T15:46:24.346Z,1.30
2022-09-18T15:48:52.162Z,1.33
2022-09-18T15:51:24.811Z,1.57
2022-09-18T15:54:03.340Z,1.30
2022-09-18T15:56:33.957Z,1.13
2022-09-18T15:59:04.388Z,1.07
2022-09-18T16:01:36.156Z,1.30
2022-09-18T16:04:09.156Z,1.27
2022-09-18T16:06:43.407Z,1.60
2022-09-18T16:09:29.716Z,1.10
2022-09-18T16:11:59.413Z,1.60
2022-09-18T16:14:47.615Z,1.40
2022-09-18T16:17:38.724Z,1.10
2022-09-18T16:20:32.099Z,1.20
2022-09-18T16:23:20.283Z,1.40
2022-09-18T16:26:03.214Z,1.47
2022-09-18T16:28:34.137Z,1.30
2022-09-18T16:31:01.879Z,1.20
2022-09-18T16:33:33.942Z,1.20
2022-09-18T16:36:04.672Z,0.90
2022-09-18T16:38:32.482Z,1.23
2022-09-18T16:41:00.207Z,1.87
2022-09-18T16:43:28.906Z,1.60
2022-09-18T16:45:56.631Z,1.23
2022-09-18T16:48:25.170Z,1.17
2022-09-18T16:50:54.191Z,1.00
2022-09-18T16:53:21.915Z,1.47
2022-09-18T16:55:52.944Z,2.03
2022-09-18T16:58:22.488Z,1.20
2022-09-18T17:00:50.423Z,1.10
2022-09-18T17:03:18.944Z,1.20
2022-09-18T17:05:46.956Z,1.87
2022-09-18T17:08:16.141Z,2.17
2022-09-18T17:10:45.353Z,1.47
2022-09-18T17:13:13.575Z,1.58
2022-09-18T17:15:41.521Z,1.20
2022-09-18T17:18:09.483Z,1.37
2022-09-18T17:20:37.183Z,1.60
2022-09-18T17:23:04.902Z,1.20
2022-09-18T17:25:34.213Z,1.40
2022-09-18T17:28:02.299Z,1.50
2022-09-18T17:30:29.958Z,1.47
2022-09-18T17:32:57.804Z,1.50
2022-09-18T17:35:26.274Z,1.93
2022-09-18T17:37:54.822Z,1.93
2022-09-18T17:40:22.593Z,3.83
2022-09-18T17:42:51.659Z,1.60
2022-09-18T17:45:19.347Z,1.57
2022-09-18T17:47:51.736Z,1.30
2022-09-18T17:50:20.285Z,1.13
2022-09-18T17:52:48.033Z,1.60
2022-09-18T17:55:16.007Z,1.40
2022-09-18T17:57:43.946Z,1.30
2022-09-18T18:00:13.655Z,1.30
2022-09-18T18:02:41.481Z,1.17
2022-09-18T18:05:09.457Z,1.27
2022-09-18T18:07:37.187Z,1.67
2022-09-18T18:10:05.292Z,1.70
2022-09-18T18:12:33.123Z,1.40
2022-09-18T18:15:00.849Z,1.53
2022-09-18T18:17:35.802Z,2.07
2022-09-18T18:20:04.688Z,1.80
2022-09-18T18:22:32.373Z,1.20
2022-09-18T18:25:00.069Z,1.43
2022-09-18T18:27:28.115Z,1.70
2022-09-18T18:29:55.777Z,1.87
2022-09-18T18:32:23.478Z,1.70
2022-09-18T18:34:52.532Z,1.50
2022-09-18T18:37:20.495Z,1.40
2022-09-18T18:39:48.570Z,1.57
2022-09-18T18:42:16.232Z,1.70
2022-09-18T18:44:44.047Z,1.65
2022-09-18T18:47:11.720Z,1.93
2022-09-18T18:49:40.062Z,1.40
2022-09-18T18:52:09.421Z,1.50
2022-09-18T18:54:37.119Z,1.73
2022-09-18T18:57:05.165Z,1.10
2022-09-18T18:59:33.179Z,1.53
2022-09-18T19:02:01.888Z,2.10
2022-09-18T19:04:30.126Z,1.83
2022-09-18T19:06:58.754Z,1.57
2022-09-18T19:09:29.459Z,1.33
2022-09-18T19:11:57.836Z,1.70
2022-09-18T19:14:27.909Z,1.63
2022-09-18T19:16:56.354Z,1.30
2022-09-18T19:19:25.709Z,1.90
2022-09-18T19:21:53.719Z,1.87
2022-09-18T19:24:21.895Z,1.33
2022-09-18T19:26:50.928Z,2.03
2022-09-18T19:29:21.543Z,1.70
2022-09-18T19:31:50.250Z,1.53
2022-09-18T19:34:22.248Z,2.17
2022-09-18T19:36:51.758Z,2.07
2022-09-18T19:39:20.770Z,1.20
2022-09-18T19:41:53.144Z,1.63
2022-09-18T19:44:26.686Z,1.57
2022-09-18T19:46:56.356Z,1.70
2022-09-18T19:49:29.811Z,1.67
2022-09-18T19:51:57.608Z,2.23
2022-09-18T19:54:25.293Z,1.40
2022-09-18T19:56:54.296Z,1.77
2022-09-18T19:59:24.678Z,1.90
2022-09-18T20:01:53.465Z,2.00
2022-09-18T20:04:21.190Z,1.73
2022-09-18T20:06:48.895Z,2.07
2022-09-18T20:09:16.631Z,2.03
2022-09-18T20:11:48.033Z,1.90
2022-09-18T20:14:18.259Z,1.87
2022-09-18T20:16:45.963Z,3.00
2022-09-18T20:19:13.661Z,1.80
2022-09-18T20:21:41.347Z,1.70
2022-09-18T20:24:09.186Z,2.20
2022-09-18T20:26:36.931Z,2.73
2022-09-18T20:29:04.756Z,2.33
2022-09-18T20:31:33.966Z,2.00
2022-09-18T20:34:02.441Z,2.03
2022-09-18T20:36:31.925Z,1.70
2022-09-18T20:39:00.823Z,1.93
2022-09-18T20:41:29.893Z,1.60
2022-09-18T20:44:04.699Z,2.40
2022-09-18T20:46:37.156Z,2.20
2022-09-18T20:49:07.645Z,2.13
2022-09-18T20:51:35.915Z,2.50
2022-09-18T20:54:06.859Z,2.03
2022-09-18T20:56:37.982Z,1.50
2022-09-18T20:59:07.490Z,1.70
2022-09-18T21:01:37.925Z,1.50
2022-09-18T21:04:05.718Z,1.87
2022-09-18T21:06:34.751Z,1.90
2022-09-18T21:09:06.591Z,2.47
2022-09-18T21:11:38.523Z,2.13
2022-09-18T21:14:08.204Z,1.50
2022-09-18T21:16:40.359Z,1.70
2022-09-18T21:19:10.932Z,1.93
2022-09-18T21:21:38.976Z,2.00
2022-09-18T21:24:08.734Z,2.80
2022-09-18T21:26:37.892Z,2.20
2022-09-18T21:29:11.223Z,1.73
2022-09-18T21:31:42.424Z,2.20
2022-09-18T21:34:11.463Z,1.77
2022-09-18T21:36:41.452Z,1.70
2022-09-18T21:39:10.814Z,1.50
2022-09-18T21:41:39.348Z,1.70
2022-09-18T21:44:08.816Z,1.70
2022-09-18T21:46:38.668Z,1.60
2022-09-18T21:49:09.429Z,1.53
2022-09-18T21:51:40.099Z,1.50
2022-09-18T21:54:09.694Z,1.60
2022-09-18T21:56:37.449Z,1.30
2022-09-18T21:59:05.857Z,1.70
2022-09-18T22:01:35.364Z,1.60
2022-09-18T22:04:03.642Z,1.57
2022-09-18T22:06:35.765Z,1.43
2022-09-18T22:09:08.091Z,1.23
2022-09-18T22:11:37.259Z,1.37
2022-09-18T22:14:07.678Z,1.30
2022-09-18T22:16:35.889Z,1.20
2022-09-18T22:19:06.154Z,1.57
2022-09-18T22:21:38.379Z,1.00
2022-09-18T22:24:09.759Z,1.70
2022-09-18T22:26:40.161Z,1.20
2022-09-18T22:29:14.051Z,1.60
2022-09-18T22:31:41.993Z,1.53
2022-09-18T22:34:09.741Z,1.50
2022-09-18T22:36:38.770Z,2.70
2022-09-18T22:39:06.489Z,1.93
2022-09-18T22:41:37.279Z,1.10
2022-09-18T22:44:05.613Z,1.20
2022-09-18T22:46:34.125Z,1.10
2022-09-18T22:49:01.915Z,1.20
2022-09-18T22:51:29.866Z,1.40
2022-09-18T22:54:02.650Z,1.30
2022-09-18T22:56:30.701Z,1.40
2022-09-18T22:59:02.049Z,1.30
2022-09-18T23:01:32.153Z,1.67
2022-09-18T23:04:03.118Z,1.10
2022-09-18T23:06:32.027Z,1.20
2022-09-18T23:09:03.327Z,1.27
2022-09-18T23:11:33.402Z,1.00
2022-09-18T23:14:03.209Z,1.20
2022-09-18T23:16:32.563Z,1.30
2022-09-18T23:19:02.036Z,1.37
2022-09-18T23:21:32.345Z,1.47
2022-09-18T23:24:07.101Z,1.13
2022-09-18T23:26:39.162Z,1.70
2022-09-18T23:29:08.829Z,1.87
2022-09-18T23:31:38.618Z,2.87
2022-09-18T23:34:08.563Z,1.60
2022-09-18T23:36:38.062Z,1.60
2022-09-18T23:39:09.386Z,1.97
2022-09-18T23:41:37.979Z,2.00
2022-09-18T23:44:07.702Z,2.10
2022-09-18T23:46:35.692Z,1.90
2022-09-18T23:49:04.005Z,2.23
2022-09-18T23:51:33.085Z,2.70
2022-09-18T23:54:03.170Z,2.80
2022-09-18T23:56:33.916Z,2.80
2022-09-18T23:59:03.496Z,3.40
